QFA35 VHHH-YSSY
Flight info
| Callsign | QFA35 |
|---|---|
| Flight time | N/A |
| Altitude | 35000 |
| Route | DALOL V652 UNTUL/N0506F360 V652 SABNO/N0508F350 A583 KALAH/N0504F370 A583 ZAM A461 AMN R340 DUMAV/N0497F390 R340 SURVO Y161 OVNOM H652 BOREE |
| Aircraft | A388/J-SADE2E3FGHIJ3J4J5M1RWXY/LB1D1 |
Departure
| Time | 2026-05-07 23:41 |
|---|---|
| Airport | Hong Kong International Airport (VHHH) |
Arrival
| Time | N/A |
|---|---|
| Airport | Sydney Kingsford Smith International Airport (YSSY) |
| Time | Latitude | Longitude | Altitude | Speed | Heading |
|---|---|---|---|---|---|
| 2026-05-07 22:54 | 22.31516 | 113.92490 | 37 ft | 0 kts | 206° |
| 2026-05-07 23:29 | 22.31528 | 113.92497 | 37 ft | 4 kts | 206° |
| 2026-05-07 23:29 | 22.31550 | 113.92508 | 35 ft | 4 kts | 206° |
| 2026-05-07 23:29 | 22.31568 | 113.92520 | 34 ft | 3 kts | 223° |
| 2026-05-07 23:29 | 22.31580 | 113.92538 | 35 ft | 3 kts | 243° |
| 2026-05-07 23:30 | 22.31582 | 113.92555 | 33 ft | 2 kts | 275° |
| 2026-05-07 23:30 | 22.31574 | 113.92575 | 32 ft | 4 kts | 295° |
| 2026-05-07 23:30 | 22.31566 | 113.92593 | 33 ft | 2 kts | 296° |
| 2026-05-07 23:30 | 22.31563 | 113.92599 | 32 ft | 1 kts | 296° |
| 2026-05-07 23:34 | 22.31577 | 113.92569 | 32 ft | 9 kts | 296° |
| 2026-05-07 23:34 | 22.31607 | 113.92502 | 37 ft | 11 kts | 296° |
| 2026-05-07 23:34 | 22.31659 | 113.92447 | 37 ft | 12 kts | 335° |
| 2026-05-07 23:35 | 22.31731 | 113.92399 | 37 ft | 12 kts | 300° |
| 2026-05-07 23:35 | 22.31722 | 113.92319 | 37 ft | 12 kts | 244° |
| 2026-05-07 23:35 | 22.31689 | 113.92228 | 37 ft | 14 kts | 249° |
| 2026-05-07 23:35 | 22.31652 | 113.92119 | 37 ft | 16 kts | 251° |
| 2026-05-07 23:36 | 22.31617 | 113.91996 | 37 ft | 18 kts | 253° |
| 2026-05-07 23:36 | 22.31577 | 113.91865 | 37 ft | 19 kts | 250° |
| 2026-05-07 23:36 | 22.31530 | 113.91729 | 37 ft | 20 kts | 250° |
| 2026-05-07 23:36 | 22.31483 | 113.91585 | 18 ft | 21 kts | 251° |
| 2026-05-07 23:37 | 22.31436 | 113.91436 | 37 ft | 21 kts | 251° |
| 2026-05-07 23:37 | 22.31386 | 113.91283 | 37 ft | 22 kts | 250° |
| 2026-05-07 23:37 | 22.31335 | 113.91129 | 37 ft | 22 kts | 250° |
| 2026-05-07 23:37 | 22.31287 | 113.90981 | 37 ft | 21 kts | 250° |
| 2026-05-07 23:38 | 22.31238 | 113.90834 | 37 ft | 21 kts | 250° |
| 2026-05-07 23:38 | 22.31189 | 113.90682 | 37 ft | 22 kts | 251° |
| 2026-05-07 23:38 | 22.31140 | 113.90524 | 37 ft | 22 kts | 251° |
| 2026-05-07 23:38 | 22.31091 | 113.90364 | 37 ft | 22 kts | 251° |
| 2026-05-07 23:39 | 22.31038 | 113.90204 | 37 ft | 23 kts | 249° |
| 2026-05-07 23:39 | 22.30984 | 113.90042 | 37 ft | 23 kts | 250° |
| 2026-05-07 23:39 | 22.30939 | 113.89904 | 37 ft | 17 kts | 251° |
| 2026-05-07 23:39 | 22.30957 | 113.89813 | 37 ft | 11 kts | 332° |
| 2026-05-07 23:40 | 22.31043 | 113.89776 | 35 ft | 14 kts | 356° |
| 2026-05-07 23:40 | 22.31101 | 113.89821 | 35 ft | 11 kts | 70° |
| 2026-05-07 23:40 | 22.31129 | 113.89905 | 35 ft | 13 kts | 70° |
| 2026-05-07 23:40 | 22.31223 | 113.90205 | 35 ft | 79 kts | 71° |
| 2026-05-07 23:41 | 22.31474 | 113.90985 | 37 ft | 137 kts | 71° |
| 2026-05-07 23:41 | 22.31844 | 113.92088 | 69 ft | 171 kts | 71° |
| 2026-05-07 23:41 | 22.32248 | 113.93332 | 428 ft | 178 kts | 73° |
| 2026-05-07 23:41 | 22.32642 | 113.94597 | 937 ft | 177 kts | 72° |
| 2026-05-07 23:42 | 22.33044 | 113.95914 | 1176 ft | 192 kts | 71° |
| 2026-05-07 23:42 | 22.33476 | 113.97311 | 1440 ft | 200 kts | 74° |
| 2026-05-07 23:42 | 22.33730 | 113.98744 | 2017 ft | 188 kts | 85° |
| 2026-05-07 23:42 | 22.33674 | 114.00125 | 2524 ft | 185 kts | 95° |
| 2026-05-07 23:43 | 22.33744 | 114.01539 | 2792 ft | 192 kts | 77° |
| 2026-05-07 23:43 | 22.34095 | 114.02931 | 3177 ft | 193 kts | 73° |
| 2026-05-07 23:43 | 22.34268 | 114.04390 | 3397 ft | 200 kts | 95° |
| 2026-05-07 23:43 | 22.33898 | 114.05828 | 3709 ft | 200 kts | 117° |
| 2026-05-07 23:44 | 22.33083 | 114.07036 | 3998 ft | 200 kts | 137° |
| 2026-05-07 23:44 | 22.31959 | 114.07935 | 4180 ft | 206 kts | 151° |
| 2026-05-07 23:44 | 22.30605 | 114.08546 | 4263 ft | 220 kts | 166° |
| 2026-05-07 23:44 | 22.29067 | 114.08764 | 4791 ft | 224 kts | 181° |
| 2026-05-07 23:45 | 22.27500 | 114.08706 | 5403 ft | 227 kts | 182° |
| 2026-05-07 23:45 | 22.26010 | 114.08679 | 5910 ft | 231 kts | 181° |
| 2026-05-07 23:45 | 22.24378 | 114.08669 | 6376 ft | 237 kts | 181° |
| 2026-05-07 23:45 | 22.22704 | 114.08661 | 7036 ft | 238 kts | 182° |
| 2026-05-07 23:46 | 22.21068 | 114.08651 | 7650 ft | 240 kts | 182° |
| 2026-05-07 23:46 | 22.19396 | 114.08638 | 8240 ft | 242 kts | 182° |
| 2026-05-07 23:46 | 22.17676 | 114.08643 | 8844 ft | 246 kts | 175° |
| 2026-05-07 23:46 | 22.16071 | 114.09226 | 9382 ft | 252 kts | 146° |
| 2026-05-07 23:47 | 22.14936 | 114.10511 | 9927 ft | 256 kts | 121° |
| 2026-05-07 23:47 | 22.14123 | 114.12254 | 10454 ft | 259 kts | 115° |
| 2026-05-07 23:47 | 22.13384 | 114.14020 | 10982 ft | 262 kts | 115° |
| 2026-05-07 23:47 | 22.12643 | 114.15738 | 11496 ft | 265 kts | 116° |
| 2026-05-07 23:48 | 22.11841 | 114.17513 | 12030 ft | 268 kts | 117° |
| 2026-05-07 23:48 | 22.11021 | 114.19271 | 12534 ft | 272 kts | 118° |
| 2026-05-07 23:48 | 22.10205 | 114.20994 | 13046 ft | 276 kts | 118° |
| 2026-05-07 23:48 | 22.09323 | 114.22846 | 13565 ft | 280 kts | 118° |
| 2026-05-07 23:49 | 22.08423 | 114.24726 | 13910 ft | 285 kts | 120° |
| 2026-05-07 23:49 | 22.07279 | 114.26449 | 13997 ft | 282 kts | 137° |
| 2026-05-07 23:49 | 22.05775 | 114.27790 | 14021 ft | 280 kts | 148° |
| 2026-05-07 23:49 | 22.04183 | 114.28991 | 14025 ft | 280 kts | 147° |
| 2026-05-07 23:50 | 22.02607 | 114.30221 | 14024 ft | 279 kts | 146° |
| 2026-05-07 23:50 | 22.01133 | 114.31385 | 14022 ft | 279 kts | 146° |
| 2026-05-07 23:50 | 21.99568 | 114.32624 | 14024 ft | 279 kts | 146° |
| 2026-05-07 23:50 | 21.98054 | 114.33822 | 14022 ft | 279 kts | 146° |
| 2026-05-07 23:51 | 21.96605 | 114.34965 | 14018 ft | 279 kts | 146° |
| 2026-05-07 23:51 | 21.93489 | 114.37420 | 14020 ft | 279 kts | 146° |
| 2026-05-07 23:51 | 21.91919 | 114.38657 | 14018 ft | 279 kts | 146° |
| 2026-05-07 23:52 | 21.90352 | 114.39890 | 14022 ft | 278 kts | 146° |
| 2026-05-07 23:52 | 21.88814 | 114.41101 | 14025 ft | 278 kts | 146° |
| 2026-05-07 23:52 | 21.87265 | 114.42320 | 14025 ft | 278 kts | 146° |
| 2026-05-07 23:52 | 21.85725 | 114.43583 | 14007 ft | 279 kts | 138° |
| 2026-05-07 23:53 | 21.84574 | 114.45271 | 14077 ft | 285 kts | 115° |
| 2026-05-07 23:53 | 21.84027 | 114.47179 | 14340 ft | 289 kts | 104° |
| 2026-05-07 23:53 | 21.83530 | 114.49269 | 14872 ft | 289 kts | 106° |
| 2026-05-07 23:53 | 21.82991 | 114.51366 | 15338 ft | 292 kts | 107° |
| 2026-05-07 23:54 | 21.82439 | 114.53475 | 15798 ft | 295 kts | 107° |
| 2026-05-07 23:54 | 21.81894 | 114.55557 | 16248 ft | 298 kts | 106° |
| 2026-05-07 23:54 | 21.81333 | 114.57712 | 16703 ft | 301 kts | 106° |
| 2026-05-07 23:54 | 21.80818 | 114.59695 | 17117 ft | 303 kts | 106° |
| 2026-05-07 23:55 | 21.80249 | 114.61892 | 17552 ft | 306 kts | 106° |
| 2026-05-07 23:55 | 21.79675 | 114.64111 | 17975 ft | 310 kts | 106° |
| 2026-05-07 23:55 | 21.79094 | 114.66355 | 18370 ft | 313 kts | 106° |
| 2026-05-07 23:55 | 21.78509 | 114.68613 | 18764 ft | 314 kts | 106° |
| 2026-05-07 23:56 | 21.77943 | 114.70798 | 19131 ft | 315 kts | 105° |
| 2026-05-07 23:56 | 21.77372 | 114.72998 | 19495 ft | 317 kts | 105° |
| 2026-05-07 23:56 | 21.76776 | 114.75293 | 19854 ft | 319 kts | 105° |
| 2026-05-07 23:56 | 21.76178 | 114.77596 | 20217 ft | 321 kts | 105° |
| 2026-05-07 23:57 | 21.75576 | 114.79913 | 20567 ft | 322 kts | 105° |
| 2026-05-07 23:57 | 21.74969 | 114.82240 | 20908 ft | 324 kts | 106° |
| 2026-05-07 23:57 | 21.74158 | 114.84511 | 21235 ft | 326 kts | 117° |
| 2026-05-07 23:57 | 21.72980 | 114.86600 | 21567 ft | 328 kts | 127° |
| 2026-05-07 23:58 | 21.71571 | 114.88534 | 21880 ft | 330 kts | 128° |
| 2026-05-07 23:58 | 21.70286 | 114.90323 | 22179 ft | 331 kts | 128° |
| 2026-05-07 23:58 | 21.68885 | 114.92304 | 22496 ft | 333 kts | 127° |
| 2026-05-07 23:58 | 21.67481 | 114.94295 | 22820 ft | 336 kts | 127° |
| 2026-05-07 23:59 | 21.66108 | 114.96239 | 23114 ft | 338 kts | 127° |
| 2026-05-07 23:59 | 21.64718 | 114.98203 | 23430 ft | 339 kts | 127° |
| 2026-05-07 23:59 | 21.63366 | 115.00113 | 23693 ft | 341 kts | 127° |
| 2026-05-07 23:59 | 21.61995 | 115.02046 | 23981 ft | 341 kts | 128° |
| 2026-05-08 00:00 | 21.60651 | 115.03941 | 24239 ft | 342 kts | 128° |
| 2026-05-08 00:00 | 21.59413 | 115.05686 | 24451 ft | 344 kts | 128° |
| 2026-05-08 00:00 | 21.57935 | 115.07767 | 24712 ft | 346 kts | 128° |
| 2026-05-08 00:00 | 21.56472 | 115.09826 | 24970 ft | 348 kts | 128° |
| 2026-05-08 00:01 | 21.55005 | 115.11891 | 25222 ft | 349 kts | 128° |
| 2026-05-08 00:01 | 21.53443 | 115.13857 | 25465 ft | 351 kts | 136° |
| 2026-05-08 00:01 | 21.51615 | 115.15598 | 25717 ft | 352 kts | 144° |
| 2026-05-08 00:01 | 21.49602 | 115.17090 | 25954 ft | 353 kts | 147° |
| 2026-05-08 00:02 | 21.47551 | 115.18569 | 26201 ft | 355 kts | 147° |
| 2026-05-08 00:02 | 21.45502 | 115.20070 | 26458 ft | 357 kts | 146° |
| 2026-05-08 00:02 | 21.43444 | 115.21583 | 26722 ft | 359 kts | 146° |
| 2026-05-08 00:02 | 21.41377 | 115.23101 | 26984 ft | 361 kts | 146° |
| 2026-05-08 00:03 | 21.39298 | 115.24627 | 27235 ft | 363 kts | 146° |
| 2026-05-08 00:03 | 21.37322 | 115.26074 | 27481 ft | 365 kts | 146° |
| 2026-05-08 00:03 | 21.35219 | 115.27614 | 27765 ft | 367 kts | 146° |
| 2026-05-08 00:03 | 21.33208 | 115.29086 | 28012 ft | 369 kts | 146° |
| 2026-05-08 00:04 | 21.31152 | 115.30589 | 28270 ft | 372 kts | 146° |
| 2026-05-08 00:04 | 21.29015 | 115.32152 | 28561 ft | 374 kts | 146° |
| 2026-05-08 00:04 | 21.26857 | 115.33728 | 28838 ft | 376 kts | 146° |
| 2026-05-08 00:04 | 21.24690 | 115.35311 | 29121 ft | 378 kts | 146° |
| 2026-05-08 00:05 | 21.22512 | 115.36902 | 29404 ft | 381 kts | 146° |
| 2026-05-08 00:05 | 21.20311 | 115.38509 | 29698 ft | 383 kts | 146° |
| 2026-05-08 00:05 | 21.18142 | 115.40093 | 29986 ft | 386 kts | 146° |
| 2026-05-08 00:05 | 21.16004 | 115.41653 | 30239 ft | 388 kts | 146° |
| 2026-05-08 00:06 | 21.13759 | 115.43291 | 30491 ft | 391 kts | 146° |
| 2026-05-08 00:06 | 21.11506 | 115.44934 | 30750 ft | 394 kts | 146° |
| 2026-05-08 00:06 | 21.09230 | 115.46592 | 31012 ft | 397 kts | 146° |
| 2026-05-08 00:06 | 21.06940 | 115.48261 | 31273 ft | 399 kts | 146° |
| 2026-05-08 00:07 | 21.04634 | 115.49941 | 31517 ft | 403 kts | 146° |
| 2026-05-08 00:07 | 21.02312 | 115.51631 | 31775 ft | 406 kts | 146° |
| 2026-05-08 00:07 | 20.99970 | 115.53336 | 32032 ft | 408 kts | 146° |
| 2026-05-08 00:07 | 20.97610 | 115.55052 | 32283 ft | 411 kts | 146° |
| 2026-05-08 00:08 | 20.95239 | 115.56777 | 32547 ft | 414 kts | 146° |
| 2026-05-08 00:08 | 20.92852 | 115.58512 | 32784 ft | 417 kts | 146° |
| 2026-05-08 00:08 | 20.90438 | 115.60266 | 33026 ft | 420 kts | 146° |
| 2026-05-08 00:08 | 20.88012 | 115.62028 | 33273 ft | 423 kts | 146° |
| 2026-05-08 00:09 | 20.85572 | 115.63800 | 33514 ft | 426 kts | 146° |
| 2026-05-08 00:09 | 20.83118 | 115.65581 | 33783 ft | 428 kts | 146° |
| 2026-05-08 00:09 | 20.80647 | 115.67374 | 34016 ft | 430 kts | 146° |
| 2026-05-08 00:09 | 20.78196 | 115.69151 | 34220 ft | 433 kts | 146° |
| 2026-05-08 00:10 | 20.75691 | 115.70967 | 34399 ft | 436 kts | 146° |
| 2026-05-08 00:10 | 20.73175 | 115.72790 | 34609 ft | 439 kts | 146° |
| 2026-05-08 00:10 | 20.70644 | 115.74623 | 34867 ft | 439 kts | 146° |
| 2026-05-08 00:10 | 20.68113 | 115.76456 | 35080 ft | 442 kts | 146° |
| 2026-05-08 00:11 | 20.65561 | 115.78303 | 35249 ft | 445 kts | 146° |
| 2026-05-08 00:11 | 20.62991 | 115.80162 | 35448 ft | 447 kts | 146° |
| 2026-05-08 00:11 | 20.60407 | 115.82031 | 35620 ft | 450 kts | 146° |
| 2026-05-08 00:11 | 20.57808 | 115.83910 | 35822 ft | 452 kts | 146° |
| 2026-05-08 00:12 | 20.55194 | 115.85799 | 35971 ft | 456 kts | 146° |
| 2026-05-08 00:12 | 20.52550 | 115.87708 | 35974 ft | 461 kts | 146° |
| 2026-05-08 00:12 | 20.47297 | 115.91501 | 35969 ft | 454 kts | 146° |
| 2026-05-08 00:13 | 20.42067 | 115.95272 | 35969 ft | 454 kts | 146° |
| 2026-05-08 00:13 | 20.36837 | 115.99041 | 35966 ft | 453 kts | 146° |
| 2026-05-08 00:14 | 20.31288 | 116.01756 | 35972 ft | 459 kts | 170° |
| 2026-05-08 00:14 | 20.28100 | 116.02132 | 35971 ft | 464 kts | 183° |
| 2026-05-08 00:14 | 20.24879 | 116.01822 | 35971 ft | 468 kts | 190° |
| 2026-05-08 00:15 | 20.18316 | 116.00880 | 35967 ft | 483 kts | 189° |
| 2026-05-08 00:15 | 20.11552 | 115.99942 | 35964 ft | 498 kts | 189° |
| 2026-05-08 00:16 | 20.04589 | 115.98986 | 35965 ft | 513 kts | 189° |
| 2026-05-08 00:16 | 19.97397 | 115.97998 | 35962 ft | 528 kts | 189° |
| 2026-05-08 00:17 | 19.90050 | 115.96989 | 35960 ft | 544 kts | 189° |
| 2026-05-08 00:17 | 19.82587 | 115.95968 | 35961 ft | 537 kts | 189° |
| 2026-05-08 00:18 | 19.75582 | 115.95009 | 35959 ft | 540 kts | 189° |
| 2026-05-08 00:18 | 19.68397 | 115.94025 | 35960 ft | 540 kts | 189° |
| 2026-05-08 00:19 | 19.61072 | 115.93023 | 35955 ft | 540 kts | 189° |
| 2026-05-08 00:19 | 19.53817 | 115.92032 | 35954 ft | 540 kts | 189° |
| 2026-05-08 00:20 | 19.46380 | 115.91016 | 35953 ft | 540 kts | 189° |
| 2026-05-08 00:20 | 19.38936 | 115.90001 | 35955 ft | 540 kts | 189° |
| 2026-05-08 00:21 | 19.31512 | 115.88989 | 35955 ft | 539 kts | 189° |
| 2026-05-08 00:21 | 19.24070 | 115.87976 | 35952 ft | 539 kts | 189° |
| 2026-05-08 00:22 | 19.16620 | 115.86962 | 35945 ft | 539 kts | 188° |
| 2026-05-08 00:22 | 19.09186 | 115.85952 | 35949 ft | 539 kts | 188° |
| 2026-05-08 00:23 | 19.01731 | 115.85193 | 35951 ft | 540 kts | 179° |
| 2026-05-08 00:23 | 18.97995 | 115.85634 | 35951 ft | 541 kts | 168° |
| 2026-05-08 00:23 | 18.94393 | 115.86769 | 35951 ft | 542 kts | 158° |
| 2026-05-08 00:24 | 18.88797 | 115.89743 | 35943 ft | 541 kts | 152° |
| 2026-05-08 00:24 | 18.82150 | 115.93442 | 35946 ft | 538 kts | 152° |
| 2026-05-08 00:25 | 18.75509 | 115.97089 | 35950 ft | 540 kts | 152° |
| 2026-05-08 00:25 | 18.68835 | 116.00738 | 35948 ft | 540 kts | 152° |
| 2026-05-08 00:26 | 18.62159 | 116.04384 | 35945 ft | 540 kts | 152° |
| 2026-05-08 00:26 | 18.55486 | 116.08025 | 35943 ft | 540 kts | 152° |
| 2026-05-08 00:27 | 18.48828 | 116.11655 | 35944 ft | 538 kts | 152° |
| 2026-05-08 00:27 | 18.42306 | 116.15208 | 35940 ft | 538 kts | 152° |
| 2026-05-08 00:28 | 18.35657 | 116.18827 | 35939 ft | 538 kts | 152° |
| 2026-05-08 00:28 | 18.29133 | 116.22375 | 35939 ft | 538 kts | 152° |
| 2026-05-08 00:29 | 18.22483 | 116.25988 | 35935 ft | 538 kts | 152° |
| 2026-05-08 00:29 | 18.15874 | 116.29575 | 35940 ft | 537 kts | 152° |
| 2026-05-08 00:30 | 18.09352 | 116.33113 | 35934 ft | 537 kts | 152° |
| 2026-05-08 00:30 | 18.02714 | 116.36711 | 35940 ft | 537 kts | 152° |
| 2026-05-08 00:31 | 17.96184 | 116.40247 | 35942 ft | 537 kts | 152° |
| 2026-05-08 00:31 | 17.89549 | 116.43837 | 35942 ft | 537 kts | 152° |
| 2026-05-08 00:32 | 17.82917 | 116.47421 | 35932 ft | 535 kts | 152° |
| 2026-05-08 00:32 | 17.76288 | 116.51002 | 35937 ft | 535 kts | 152° |
| 2026-05-08 00:33 | 17.69668 | 116.54574 | 35937 ft | 535 kts | 152° |
| 2026-05-08 00:33 | 17.63035 | 116.58151 | 35936 ft | 537 kts | 152° |
| 2026-05-08 00:34 | 17.56387 | 116.61732 | 35933 ft | 537 kts | 152° |
| 2026-05-08 00:34 | 17.49863 | 116.65244 | 35933 ft | 535 kts | 152° |
| 2026-05-08 00:35 | 17.43438 | 116.68700 | 35930 ft | 535 kts | 152° |
| 2026-05-08 00:35 | 17.36816 | 116.72259 | 35931 ft | 536 kts | 152° |
| 2026-05-08 00:36 | 17.30236 | 116.75792 | 35931 ft | 535 kts | 152° |
| 2026-05-08 00:36 | 17.23824 | 116.79232 | 35934 ft | 535 kts | 152° |
| 2026-05-08 00:37 | 17.17351 | 116.82703 | 35923 ft | 535 kts | 152° |
| 2026-05-08 00:38 | 17.07415 | 116.88024 | 35932 ft | 535 kts | 152° |
| 2026-05-08 00:38 | 17.00784 | 116.91572 | 35923 ft | 536 kts | 152° |
| 2026-05-08 00:39 | 16.94160 | 116.95113 | 35927 ft | 534 kts | 152° |
| 2026-05-08 00:39 | 16.87527 | 116.98657 | 35932 ft | 535 kts | 152° |
| 2026-05-08 00:40 | 16.80901 | 117.02194 | 35926 ft | 535 kts | 152° |
| 2026-05-08 00:40 | 16.74458 | 117.05630 | 35923 ft | 535 kts | 152° |
| 2026-05-08 00:41 | 16.67824 | 117.09166 | 35922 ft | 535 kts | 152° |
| 2026-05-08 00:41 | 16.61191 | 117.12698 | 35922 ft | 536 kts | 152° |
| 2026-05-08 00:42 | 16.54560 | 117.16226 | 35925 ft | 535 kts | 152° |
| 2026-05-08 00:42 | 16.48041 | 117.19693 | 35923 ft | 535 kts | 152° |
| 2026-05-08 00:43 | 16.41479 | 117.23179 | 35924 ft | 535 kts | 152° |
| 2026-05-08 00:43 | 16.34993 | 117.26621 | 35923 ft | 535 kts | 152° |
| 2026-05-08 00:44 | 16.28516 | 117.30058 | 35916 ft | 535 kts | 152° |
| 2026-05-08 00:44 | 16.22126 | 117.33445 | 35921 ft | 535 kts | 152° |
| 2026-05-08 00:45 | 16.15493 | 117.36958 | 35916 ft | 535 kts | 152° |
| 2026-05-08 00:45 | 16.08994 | 117.40398 | 35922 ft | 535 kts | 152° |
| 2026-05-08 00:46 | 16.02360 | 117.43907 | 35914 ft | 534 kts | 152° |
| 2026-05-08 00:46 | 15.95848 | 117.47348 | 35917 ft | 535 kts | 152° |
| 2026-05-08 00:47 | 15.89211 | 117.50853 | 35919 ft | 535 kts | 152° |
| 2026-05-08 00:47 | 15.82566 | 117.54360 | 35917 ft | 534 kts | 152° |
| 2026-05-08 00:48 | 15.76102 | 117.57768 | 35915 ft | 534 kts | 152° |
| 2026-05-08 00:48 | 15.69478 | 117.61259 | 35922 ft | 534 kts | 152° |
| 2026-05-08 00:49 | 15.62854 | 117.64747 | 35914 ft | 534 kts | 152° |
| 2026-05-08 00:49 | 15.56403 | 117.68141 | 35918 ft | 534 kts | 152° |
| 2026-05-08 00:50 | 15.49918 | 117.71551 | 35925 ft | 534 kts | 152° |
| 2026-05-08 00:50 | 15.43507 | 117.74920 | 35913 ft | 533 kts | 152° |
| 2026-05-08 00:51 | 15.36995 | 117.78338 | 35909 ft | 534 kts | 152° |
| 2026-05-08 00:51 | 15.30538 | 117.81727 | 35902 ft | 533 kts | 152° |
| 2026-05-08 00:52 | 15.23913 | 117.85200 | 35904 ft | 534 kts | 152° |
| 2026-05-08 00:52 | 15.17502 | 117.88559 | 35921 ft | 533 kts | 152° |
| 2026-05-08 00:53 | 15.10838 | 117.92048 | 35920 ft | 533 kts | 152° |
| 2026-05-08 00:53 | 15.04373 | 117.95431 | 35908 ft | 533 kts | 152° |
| 2026-05-08 00:54 | 14.97853 | 117.98840 | 35896 ft | 533 kts | 152° |
| 2026-05-08 00:54 | 14.91225 | 118.02303 | 35902 ft | 533 kts | 152° |
| 2026-05-08 00:55 | 14.84598 | 118.05763 | 35909 ft | 534 kts | 152° |
| 2026-05-08 00:55 | 14.78191 | 118.09107 | 35917 ft | 533 kts | 152° |
| 2026-05-08 00:56 | 14.71570 | 118.12559 | 35918 ft | 532 kts | 152° |
| 2026-05-08 00:56 | 14.64956 | 118.16005 | 35901 ft | 532 kts | 152° |
| 2026-05-08 00:57 | 14.58323 | 118.19459 | 35896 ft | 534 kts | 152° |
| 2026-05-08 00:57 | 14.51693 | 118.22909 | 35903 ft | 535 kts | 152° |
| 2026-05-08 00:58 | 14.45055 | 118.26361 | 35915 ft | 533 kts | 152° |
| 2026-05-08 00:58 | 14.38434 | 118.29802 | 35917 ft | 534 kts | 152° |
| 2026-05-08 00:59 | 14.31810 | 118.33242 | 35913 ft | 534 kts | 152° |
| 2026-05-08 00:59 | 14.25507 | 118.36513 | 35898 ft | 532 kts | 152° |
| 2026-05-08 01:00 | 14.18985 | 118.39895 | 35895 ft | 532 kts | 153° |
| 2026-05-08 01:00 | 14.12386 | 118.43316 | 35913 ft | 538 kts | 153° |
| 2026-05-08 01:01 | 14.05838 | 118.46707 | 35913 ft | 534 kts | 153° |
| 2026-05-08 01:01 | 13.99151 | 118.50168 | 35913 ft | 536 kts | 153° |
| 2026-05-08 01:02 | 13.92745 | 118.53482 | 35898 ft | 530 kts | 153° |
| 2026-05-08 01:02 | 13.86121 | 118.56906 | 35891 ft | 534 kts | 153° |
| 2026-05-08 01:03 | 13.79456 | 118.60350 | 35891 ft | 533 kts | 153° |
| 2026-05-08 01:03 | 13.72803 | 118.63785 | 35904 ft | 534 kts | 153° |
| 2026-05-08 01:04 | 13.66179 | 118.67203 | 35905 ft | 535 kts | 153° |
| 2026-05-08 01:04 | 13.59531 | 118.70630 | 35909 ft | 538 kts | 153° |
| 2026-05-08 01:05 | 13.53075 | 118.73957 | 35900 ft | 531 kts | 153° |
| 2026-05-08 01:05 | 13.46611 | 118.77286 | 35886 ft | 535 kts | 153° |
| 2026-05-08 01:06 | 13.39941 | 118.80718 | 35892 ft | 534 kts | 153° |
| 2026-05-08 01:06 | 13.33287 | 118.84140 | 35891 ft | 539 kts | 153° |
| 2026-05-08 01:07 | 13.26766 | 118.87492 | 35907 ft | 535 kts | 153° |
| 2026-05-08 01:07 | 13.20312 | 118.90807 | 35907 ft | 532 kts | 153° |
| 2026-05-08 01:08 | 13.13652 | 118.94227 | 35889 ft | 533 kts | 153° |
| 2026-05-08 01:08 | 13.07028 | 118.97626 | 35900 ft | 536 kts | 153° |
| 2026-05-08 01:09 | 13.00593 | 119.00925 | 35897 ft | 536 kts | 153° |
| 2026-05-08 01:09 | 12.98386 | 119.02056 | 35892 ft | 538 kts | 153° |